Flight Track Log - Related Links

Times and Time Zones

All times are in EDT time to prevent confusion due to time zone crossing. See the QXE353 flight status page for this flight to view local times or setup timezone preferences in your user account.

Time Position Orientation Groundspeed Altitude Reporting Facility
EDT Latitude Longitude Course Direction KTS MPH feet Rate Location/Type
Thu 09:04:30 AM 48.6500 -123.4667 148° Southeast 130 150 1,700  Level Vancouver Center
Thu 09:06:30 AM 48.6000 -123.5500 228° Southwest 220 253 5,900 1,967 Climbing Vancouver Center
Thu 09:07:30 AM 48.5333 -123.4667 140° Southeast 260 299 7,600 1,650 Climbing Vancouver Center
Thu 09:08:00 AM 48.5471 -123.3305 148° Southeast  Level Estimated
Thu 09:08:30 AM 48.4833 -123.4000 139° Southeast 270 311 9,200  Level Vancouver Center
Thu 09:09:00 AM 48.4972 -123.2830 148° Southeast  Level Estimated
Thu 09:09:30 AM 48.4333 -123.3167 132° Southeast 290 334 11,000  Level Vancouver Center
Thu 09:10:30 AM 48.3667 -123.2500 146° Southeast 290 334 12,700 816 Climbing Vancouver Center
Thu 09:11:57 AM 48.3017 -123.1244 128° Southeast 307 353 13,000 151 Climbing Seattle Center
Thu 09:12:29 AM 48.2594 -123.0656 137° Southeast 337 388 13,000  Level Seattle Center
Thu 09:12:58 AM 48.2311 -123.0283 139° Southeast 338 389 13,000  Level Seattle Center
Thu 09:13:59 AM 48.1550 -122.9567 148° Southeast 325 374 13,000 -347 Level Seattle Center
Thu 09:14:59 AM 48.0778 -122.8886 150° Southeast 323 372 12,300 -556 Descending Seattle Center
Thu 09:16:30 AM 47.9667 -122.7333 137° Southeast 320 368 11,600 -545 Descending Vancouver Center
Thu 09:17:00 AM 47.9608 -122.6969 103° East 316 364 11,200 -1,253 Descending Seattle Center
Thu 09:18:01 AM 47.9078 -122.5969 128° Southeast 306 352 9,700 -1,426 Descending Seattle Center
Thu 09:19:02 AM 47.8564 -122.5031 129° Southeast 295 339 8,300 -1,395 Descending Seattle Center
Thu 09:20:10 AM 47.7803 -122.4092 140° Southeast 272 313 6,700 -1,266 Descending Seattle Center
Thu 09:21:10 AM 47.7158 -122.3656 156° South 259 298 5,600 -1,211 Descending Seattle Center
Thu 09:22:04 AM 47.6581 -122.3272 156° South 253 291 4,400 -1,316 Descending Seattle Center
Thu 09:23:04 AM 47.6011 -122.3103 169° South 224 258 3,100 -1,140 Descending Seattle Center
Thu 09:24:05 AM 47.5467 -122.3100 180° South 195 224 2,100 -977 Descending Seattle Center
Thu 09:24:30 AM 47.5269 -122.3122 184° South 177 204 1,700 -885 Descending Seattle Center
Thu 09:25:06 AM 47.4994 -122.3108 178° South 171 197 1,200 -806 Descending Seattle Center
Thu 09:25:37 AM 47.4819 -122.3108 180° South 124 143 800 -397 Descending Seattle Center
Thu 09:27:07 AM 47.4344 -122.3114 180° South 121 139 400 -267 Descending Seattle Center

Login

Don't have an account? Register now (free) for customized features, flight alerts, and more!